Time;durP1;ratioP1;P1;durP2;ratioP2;P2;SDS_P1;SDS_P2;PMS_P1;PMS_P2;Temp;Humidity;BMP_temperature;BMP_pressure;BME280_temperature;BME280_humidity;BME280_pressure;Samples;Min_cycle;Max_cycle;Signal;HPM_P1;HPM_P2
2022/06/19 00:01:49;;;;;;;10.37;6.00;;;23.20;99.10;;;;;;4899677;29;20224;-81
2022/06/19 00:04:17;;;;;;;7.93;5.37;;;23.30;98.50;;;;;;4896238;29;20240;-81
2022/06/19 00:06:44;;;;;;;11.03;5.63;;;23.40;98.60;;;;;;4892405;29;20206;-81
2022/06/19 00:09:11;;;;;;;9.90;5.50;;;23.50;98.00;;;;;;4909975;29;20200;-81
2022/06/19 00:11:39;;;;;;;9.30;5.83;;;23.60;98.30;;;;;;4902310;29;20197;-81
2022/06/19 00:14:08;;;;;;;6.70;5.10;;;23.60;98.00;;;;;;4899396;29;20754;-82
2022/06/19 00:16:35;;;;;;;6.60;5.10;;;23.50;97.90;;;;;;4900354;29;20208;-80
2022/06/19 00:19:02;;;;;;;12.30;5.97;;;23.50;97.90;;;;;;4900149;29;20290;-80
2022/06/19 00:21:30;;;;;;;9.30;5.33;;;23.60;97.30;;;;;;4899957;29;20268;-81
2022/06/19 00:23:57;;;;;;;10.23;5.83;;;23.60;97.30;;;;;;4899774;29;20267;-81
2022/06/19 00:26:24;;;;;;;8.87;5.30;;;23.60;97.20;;;;;;4912392;29;20201;-81
2022/06/19 00:28:51;;;;;;;6.17;4.70;;;23.60;96.90;;;;;;4900215;29;20215;-81
2022/06/19 00:31:18;;;;;;;11.10;6.53;;;23.60;97.10;;;;;;4898154;29;20197;-82
2022/06/19 00:33:45;;;;;;;9.53;5.43;;;23.60;97.10;;;;;;4913428;29;20211;-82
2022/06/19 00:36:12;;;;;;;11.47;5.13;;;23.60;96.60;;;;;;4892353;29;20264;-81
2022/06/19 00:38:40;;;;;;;8.13;5.60;;;23.60;96.50;;;;;;4899953;29;20212;-81
2022/06/19 00:41:07;;;;;;;11.30;5.97;;;23.60;96.40;;;;;;4899467;29;20307;-81
2022/06/19 00:43:53;;;;;;;9.17;5.60;;;23.60;96.50;;;;;;4897165;29;20204;-81
2022/06/19 00:46:40;;;;;;;6.67;5.13;;;23.50;96.50;;;;;;4910499;29;20639;-81
2022/06/19 00:49:10;;;;;;;7.03;5.40;;;23.50;96.40;;;;;;4898611;29;20256;-81
2022/06/19 00:51:37;;;;;;;7.07;5.43;;;23.50;96.20;;;;;;4895774;29;20271;-81
2022/06/19 00:54:07;;;;;;;11.63;5.33;;;23.40;96.30;;;;;;4898951;29;20221;-81
2022/06/19 00:56:34;;;;;;;9.70;5.97;;;23.40;96.10;;;;;;4896682;29;20268;-81
2022/06/19 00:59:02;;;;;;;6.80;4.83;;;23.40;96.20;;;;;;4914600;29;20216;-81
2022/06/19 01:01:30;;;;;;;11.43;5.70;;;23.40;96.70;;;;;;4900083;29;20212;-81
2022/06/19 01:04:02;;;;;;;9.57;4.90;;;23.20;97.60;;;;;;4905640;29;20211;-79
2022/06/19 01:06:29;;;;;;;6.67;4.87;;;23.10;97.30;;;;;;4899573;29;20211;-81
2022/06/19 01:08:57;;;;;;;5.10;4.60;;;23.00;97.30;;;;;;4890249;29;20205;-82
2022/06/19 01:11:30;;;;;;;6.20;4.70;;;22.90;97.30;;;;;;4896420;29;20234;-81
2022/06/19 01:13:57;;;;;;;5.63;4.70;;;22.90;97.40;;;;;;4890007;29;20211;-80
2022/06/19 01:16:25;;;;;;;8.83;5.13;;;22.90;97.60;;;;;;4893378;29;20272;-81
2022/06/19 01:18:51;;;;;;;6.87;4.87;;;22.90;97.40;;;;;;4899329;29;20693;-82
2022/06/19 01:21:26;;;;;;;7.43;5.67;;;22.90;97.40;;;;;;4914836;29;20208;-81
2022/06/19 01:24:00;;;;;;;12.97;5.80;;;22.90;97.50;;;;;;4915813;29;20319;-81
2022/06/19 01:26:31;;;;;;;8.50;5.97;;;23.00;97.30;;;;;;4899470;29;20246;-80
2022/06/19 01:28:57;;;;;;;10.77;6.37;;;23.00;97.10;;;;;;4897475;29;20259;-81
2022/06/19 01:31:28;;;;;;;8.47;5.97;;;23.00;97.10;;;;;;4897491;29;20247;-82
2022/06/19 01:34:00;;;;;;;6.27;5.37;;;23.00;97.50;;;;;;4901137;29;20204;-79
2022/06/19 01:36:29;;;;;;;5.37;4.87;;;22.90;97.70;;;;;;4893955;29;20211;-81
2022/06/19 01:38:56;;;;;;;6.43;5.03;;;22.90;97.90;;;;;;4903230;29;20259;-81
2022/06/19 01:41:28;;;;;;;4.90;4.50;;;22.80;97.60;;;;;;4891208;29;20243;-81
2022/06/19 01:43:55;;;;;;;5.87;4.70;;;22.70;97.60;;;;;;4897871;29;20204;-80
2022/06/19 01:46:24;;;;;;;5.10;4.60;;;22.70;97.60;;;;;;4899023;29;20578;-81
2022/06/19 01:48:51;;;;;;;5.60;4.80;;;22.60;97.70;;;;;;4886805;29;20625;-81
2022/06/19 01:51:18;;;;;;;6.93;4.80;;;22.60;98.70;;;;;;4906804;29;20210;-81
2022/06/19 01:53:50;;;;;;;7.37;5.40;;;22.40;98.80;;;;;;4890952;29;20264;-81
2022/06/19 01:56:17;;;;;;;7.27;5.30;;;22.30;99.20;;;;;;4900878;29;20203;-81
2022/06/19 01:58:52;;;;;;;5.93;5.30;;;22.20;99.50;;;;;;4895705;29;20216;-80
2022/06/19 02:01:19;;;;;;;6.20;5.40;;;22.10;99.90;;;;;;4923015;29;20263;-81
2022/06/19 02:03:49;;;;;;;5.60;5.10;;;22.00;99.90;;;;;;4912760;29;20207;-81
2022/06/19 02:06:20;;;;;;;5.87;5.10;;;21.90;99.90;;;;;;4911790;29;20191;-80
2022/06/19 02:08:48;;;;;;;7.17;5.30;;;21.80;99.90;;;;;;4898648;29;20267;-81
2022/06/19 02:11:16;;;;;;;5.30;4.90;;;21.70;99.90;;;;;;4898835;29;20736;-79
2022/06/19 02:13:46;;;;;;;5.37;4.87;;;21.70;99.90;;;;;;4898713;29;20207;-81
2022/06/19 02:16:16;;;;;;;7.63;5.57;;;21.60;99.90;;;;;;4906875;29;20224;-81
2022/06/19 02:18:46;;;;;;;5.93;5.13;;;21.40;99.90;;;;;;4895513;29;20212;-81
2022/06/19 02:21:18;;;;;;;11.50;6.03;;;21.30;99.90;;;;;;4891058;29;20204;-80
2022/06/19 02:23:46;;;;;;;8.97;6.13;;;21.20;99.90;;;;;;4915209;29;20736;-82
2022/06/19 02:26:14;;;;;;;7.93;5.50;;;21.10;99.90;;;;;;4902735;29;20672;-82
2022/06/19 02:28:44;;;;;;;7.23;5.47;;;21.00;99.90;;;;;;4887081;29;20205;-82
2022/06/19 02:31:12;;;;;;;6.30;5.43;;;21.00;99.90;;;;;;4908108;29;20199;-81
2022/06/19 02:33:44;;;;;;;5.93;5.10;;;20.90;99.90;;;;;;4903283;29;20203;-79
2022/06/19 02:36:37;;;;;;;6.13;5.53;;;20.90;99.90;;;;;;4914123;29;20276;-80
2022/06/19 02:39:18;;;;;;;6.50;5.27;;;21.00;99.90;;;;;;4913592;29;20802;-77
2022/06/19 02:41:55;;;;;;;6.13;5.43;;;20.90;99.90;;;;;;4900711;29;20228;-76
2022/06/19 02:44:22;;;;;;;6.90;5.10;;;20.90;99.90;;;;;;4902260;29;20254;-77
2022/06/19 02:46:51;;;;;;;6.00;5.23;;;20.90;99.90;;;;;;4912408;29;20210;-76
2022/06/19 02:49:21;;;;;;;6.50;5.40;;;20.80;99.90;;;;;;4902394;29;20210;-76
2022/06/19 02:51:48;;;;;;;6.80;5.50;;;20.80;99.90;;;;;;4902115;29;20669;-77
2022/06/19 02:54:15;;;;;;;6.10;5.50;;;20.70;99.90;;;;;;4898937;29;20220;-77
2022/06/19 02:56:42;;;;;;;7.80;5.43;;;20.60;99.90;;;;;;4895200;29;20238;-76
2022/06/19 02:59:08;;;;;;;5.90;5.20;;;20.50;99.90;;;;;;4904165;29;20261;-76
2022/06/19 03:01:36;;;;;;;7.70;5.73;;;20.50;99.90;;;;;;4918235;29;20595;-77
2022/06/19 03:04:05;;;;;;;6.00;5.27;;;20.40;99.90;;;;;;4892789;29;20684;-77
2022/06/19 03:06:31;;;;;;;5.83;5.23;;;20.40;99.90;;;;;;4893253;29;20206;-76
2022/06/19 03:08:58;;;;;;;6.20;5.60;;;20.40;99.90;;;;;;4906138;29;20205;-77
2022/06/19 03:11:25;;;;;;;7.10;5.97;;;20.30;99.90;;;;;;4896603;29;20212;-76
2022/06/19 03:13:52;;;;;;;7.40;5.60;;;20.30;99.90;;;;;;4903237;29;20218;-77
2022/06/19 03:16:19;;;;;;;6.67;5.97;;;20.20;99.90;;;;;;4891698;29;20263;-76
2022/06/19 03:18:46;;;;;;;6.30;5.80;;;20.20;99.90;;;;;;4918247;29;20629;-76
2022/06/19 03:21:14;;;;;;;6.20;5.60;;;20.10;99.90;;;;;;4918106;29;20210;-77
2022/06/19 03:23:41;;;;;;;7.07;5.70;;;20.10;99.90;;;;;;4917129;29;20290;-78
2022/06/19 03:26:08;;;;;;;6.50;5.40;;;20.10;99.90;;;;;;4900631;29;20295;-78
2022/06/19 03:28:34;;;;;;;7.50;5.40;;;20.00;99.90;;;;;;4918400;29;20279;-78
2022/06/19 03:31:01;;;;;;;6.23;5.60;;;20.00;99.90;;;;;;4912526;29;20203;-78
2022/06/19 03:33:28;;;;;;;9.30;5.73;;;19.90;99.90;;;;;;4910187;29;20257;-78
2022/06/19 03:35:55;;;;;;;6.27;5.67;;;19.90;99.90;;;;;;4900533;29;20249;-78
2022/06/19 03:38:23;;;;;;;6.10;5.50;;;19.90;99.90;;;;;;4917437;29;20210;-79
2022/06/19 03:40:50;;;;;;;6.33;5.70;;;19.90;99.90;;;;;;4917738;29;20199;-78
2022/06/19 03:43:17;;;;;;;7.07;5.77;;;19.90;99.90;;;;;;4916934;29;20223;-78
2022/06/19 03:45:44;;;;;;;7.47;5.47;;;20.00;99.90;;;;;;4895485;29;20771;-78
2022/06/19 03:48:13;;;;;;;7.10;5.90;;;20.00;99.90;;;;;;4917434;29;20698;-79
2022/06/19 03:50:41;;;;;;;6.77;6.03;;;20.10;99.90;;;;;;4894627;29;20214;-79
2022/06/19 03:53:08;;;;;;;6.77;5.40;;;20.10;99.90;;;;;;4916607;29;20282;-79
2022/06/19 03:55:36;;;;;;;6.97;6.37;;;20.10;99.90;;;;;;4899921;29;20235;-81
2022/06/19 03:58:03;;;;;;;6.23;5.63;;;20.20;99.90;;;;;;4885605;29;20224;-81
2022/06/19 04:00:30;;;;;;;7.80;6.10;;;20.20;99.90;;;;;;4894903;29;20214;-81
2022/06/19 04:02:58;;;;;;;8.17;5.60;;;20.30;99.90;;;;;;4916876;29;20227;-81
2022/06/19 04:05:25;;;;;;;6.37;5.77;;;20.30;99.90;;;;;;4894678;29;20231;-81
2022/06/19 04:07:52;;;;;;;8.20;6.10;;;20.40;99.90;;;;;;4896137;29;20203;-82
2022/06/19 04:10:21;;;;;;;7.23;6.17;;;20.40;99.90;;;;;;4898880;29;20209;-81
2022/06/19 04:12:49;;;;;;;7.10;5.87;;;20.40;99.90;;;;;;4892870;29;20211;-82
2022/06/19 04:15:16;;;;;;;6.80;5.77;;;20.50;99.90;;;;;;4897255;29;20223;-82
2022/06/19 04:17:43;;;;;;;11.83;6.00;;;20.50;99.90;;;;;;4909248;29;20204;-81
2022/06/19 04:20:11;;;;;;;7.80;5.90;;;20.50;99.90;;;;;;4892544;29;20196;-82
2022/06/19 04:22:39;;;;;;;7.60;6.60;;;20.60;99.90;;;;;;4900330;29;20228;-81
2022/06/19 04:25:07;;;;;;;7.07;5.97;;;20.80;99.90;;;;;;4915216;29;20238;-82
2022/06/19 04:27:37;;;;;;;6.60;5.93;;;21.00;99.90;;;;;;4894049;29;20214;-82
2022/06/19 04:30:06;;;;;;;6.23;5.10;;;21.20;99.90;;;;;;4908898;29;20260;-82
2022/06/19 04:32:33;;;;;;;7.00;5.40;;;21.30;99.90;;;;;;4916804;29;20255;-82
2022/06/19 04:35:00;;;;;;;8.07;6.27;;;21.40;99.90;;;;;;4886715;29;20778;-82
2022/06/19 04:37:27;;;;;;;5.90;5.30;;;21.60;99.90;;;;;;4892505;29;20652;-82
2022/06/19 04:39:53;;;;;;;7.00;4.70;;;21.70;99.90;;;;;;4908778;29;20283;-82
2022/06/19 04:42:20;;;;;;;5.67;4.13;;;21.80;99.90;;;;;;4916638;29;20224;-82
2022/06/19 04:44:47;;;;;;;5.60;4.80;;;22.00;99.90;;;;;;4893848;29;20285;-82
2022/06/19 04:47:15;;;;;;;7.63;3.50;;;22.10;99.90;;;;;;4892582;29;20201;-82
2022/06/19 04:49:42;;;;;;;5.27;3.60;;;22.30;99.90;;;;;;4895051;29;20314;-82
2022/06/19 04:52:09;;;;;;;7.30;3.60;;;22.40;99.90;;;;;;4892389;29;20613;-82
2022/06/19 04:54:36;;;;;;;5.63;3.60;;;22.70;99.90;;;;;;4904744;29;20219;-82
2022/06/19 04:57:02;;;;;;;8.77;4.70;;;22.90;99.90;;;;;;4898622;29;20255;-80
2022/06/19 04:59:29;;;;;;;5.97;4.20;;;23.10;99.90;;;;;;4898215;29;20220;-82
2022/06/19 05:01:56;;;;;;;5.97;4.13;;;23.20;99.90;;;;;;4899164;29;20211;-82
2022/06/19 05:04:24;;;;;;;11.07;4.70;;;23.40;99.90;;;;;;4906058;29;20220;-82
2022/06/19 05:06:51;;;;;;;8.57;4.50;;;23.40;99.90;;;;;;4897043;29;20212;-82
2022/06/19 05:09:18;;;;;;;7.07;4.97;;;23.60;99.90;;;;;;4894293;29;20197;-82
2022/06/19 05:11:45;;;;;;;7.53;3.07;;;23.80;99.90;;;;;;4891716;29;20745;-81
2022/06/19 05:14:12;;;;;;;9.27;3.80;;;24.00;99.90;;;;;;4901986;29;20223;-83
2022/06/19 05:16:40;;;;;;;9.00;4.27;;;24.00;99.90;;;;;;4898658;29;20219;-81
2022/06/19 05:19:07;;;;;;;9.23;3.50;;;24.10;99.90;;;;;;4899428;29;20204;-81
2022/06/19 05:21:35;;;;;;;8.67;3.23;;;24.30;99.90;;;;;;4913122;29;20199;-81
2022/06/19 05:24:02;;;;;;;7.13;3.70;;;24.50;99.90;;;;;;4898728;29;20782;-81
2022/06/19 05:26:32;;;;;;;6.60;3.50;;;24.50;99.90;;;;;;4899218;29;20216;-83
2022/06/19 05:28:59;;;;;;;6.13;3.30;;;24.60;99.90;;;;;;4890752;29;20210;-83
2022/06/19 05:31:27;;;;;;;9.33;3.57;;;24.60;99.90;;;;;;4894306;29;20204;-81
2022/06/19 05:33:55;;;;;;;7.43;3.67;;;24.60;99.90;;;;;;4899186;29;20259;-82
2022/06/19 05:36:22;;;;;;;10.33;5.80;;;24.90;99.90;;;;;;4896138;29;20200;-82
2022/06/19 05:38:51;;;;;;;9.20;5.90;;;25.30;99.90;;;;;;4913380;29;20211;-81
2022/06/19 05:41:18;;;;;;;5.77;3.57;;;25.50;99.90;;;;;;4915637;29;20571;-83
2022/06/19 05:43:48;;;;;;;11.93;5.87;;;26.10;99.90;;;;;;4912066;29;20223;-82
2022/06/19 05:46:17;;;;;;;10.43;5.10;;;26.70;99.90;;;;;;4887140;29;20224;-82
2022/06/19 05:48:44;;;;;;;8.10;5.13;;;27.20;99.80;;;;;;4901068;29;20208;-81
2022/06/19 05:51:13;;;;;;;9.43;5.67;;;27.60;98.30;;;;;;4915927;29;20204;-82
2022/06/19 05:53:42;;;;;;;8.57;5.30;;;27.90;98.60;;;;;;4892679;29;20252;-83
2022/06/19 05:56:11;;;;;;;13.53;5.73;;;28.40;97.80;;;;;;4915380;29;20315;-82
2022/06/19 05:58:39;;;;;;;9.37;5.60;;;28.70;97.70;;;;;;4916459;29;20276;-83
2022/06/19 06:01:06;;;;;;;12.07;6.03;;;29.10;97.10;;;;;;4895768;29;20227;-82
2022/06/19 06:03:34;;;;;;;10.70;6.20;;;29.20;97.30;;;;;;4898729;29;20223;-83
2022/06/19 06:06:01;;;;;;;14.83;6.23;;;29.40;96.90;;;;;;4914281;29;20216;-82
2022/06/19 06:08:28;;;;;;;12.43;5.90;;;29.50;96.90;;;;;;4897936;29;20212;-82
2022/06/19 06:10:56;;;;;;;10.53;5.63;;;29.50;96.70;;;;;;4901213;29;20233;-82
2022/06/19 06:13:25;;;;;;;9.57;6.00;;;29.60;96.40;;;;;;4902041;29;20207;-81
2022/06/19 06:15:52;;;;;;;11.00;5.90;;;29.80;96.60;;;;;;4915380;29;20226;-82
2022/06/19 06:18:19;;;;;;;9.77;5.87;;;30.20;96.60;;;;;;4916717;29;20269;-83
2022/06/19 06:20:55;;;;;;;9.70;5.60;;;30.30;95.80;;;;;;4901386;29;20211;-83
2022/06/19 06:23:22;;;;;;;11.90;5.47;;;30.30;95.70;;;;;;4918600;29;20219;-82
2022/06/19 06:25:48;;;;;;;11.67;6.07;;;30.50;95.70;;;;;;4915716;29;20712;-80
2022/06/19 06:28:15;;;;;;;10.17;5.73;;;30.50;95.70;;;;;;4901544;29;20207;-81
2022/06/19 06:30:44;;;;;;;10.00;5.93;;;30.90;95.00;;;;;;4897662;29;20214;-81
2022/06/19 06:33:10;;;;;;;9.73;6.03;;;31.00;95.80;;;;;;4911301;29;20658;-83
2022/06/19 06:35:37;;;;;;;9.93;5.50;;;31.20;94.80;;;;;;4899674;29;20231;-81
2022/06/19 06:38:04;;;;;;;10.80;6.50;;;31.30;95.10;;;;;;4916253;29;20208;-81
2022/06/19 06:40:31;;;;;;;11.33;5.97;;;31.40;93.50;;;;;;4900647;29;20681;-80
2022/06/19 06:42:58;;;;;;;11.93;5.90;;;31.20;94.40;;;;;;4900256;29;20250;-81
2022/06/19 06:45:24;;;;;;;16.50;6.20;;;31.50;94.50;;;;;;4900994;29;20231;-81
2022/06/19 06:47:53;;;;;;;12.97;5.93;;;31.70;94.10;;;;;;4901010;29;20629;-82
2022/06/19 06:50:20;;;;;;;9.77;6.10;;;31.90;92.90;;;;;;4891400;29;20252;-80
2022/06/19 06:52:47;;;;;;;9.73;5.17;;;31.70;94.50;;;;;;4898510;29;20286;-82
2022/06/19 06:55:15;;;;;;;9.13;5.77;;;32.10;93.80;;;;;;4903189;29;20224;-81
2022/06/19 06:57:42;;;;;;;9.93;5.70;;;32.10;93.10;;;;;;4908695;29;20212;-80
2022/06/19 07:00:19;;;;;;;11.90;6.25;;;32.40;93.20;;;;;;4912401;29;20246;-80
2022/06/19 07:02:46;;;;;;;11.43;5.57;;;32.60;93.00;;;;;;4902621;29;20208;-81
2022/06/19 07:05:48;;;;;;;11.15;5.70;;;32.80;93.20;;;;;;4891826;29;20703;-79
2022/06/19 07:12:36;;;;;;;11.15;5.28;;;33.10;92.30;;;;;;4912461;29;20570;-85
2022/06/19 07:15:57;;;;;;;12.73;5.70;;;33.40;92.00;;;;;;4915530;29;20225;-81
2022/06/19 07:19:11;;;;;;;8.82;5.93;;;33.30;92.50;;;;;;4895883;29;20204;-81
2022/06/19 07:22:31;;;;;;;13.55;5.85;;;33.40;92.10;;;;;;4894385;29;20706;-81
2022/06/19 07:25:14;;;;;;;12.85;5.70;;;33.20;92.10;;;;;;4893650;29;20323;-82
2022/06/19 07:28:28;;;;;;;8.80;5.82;;;33.30;92.00;;;;;;4913813;29;20743;-82
2022/06/19 07:31:16;;;;;;;11.95;5.82;;;33.50;91.70;;;;;;4912066;29;20231;-84
2022/06/19 07:33:48;;;;;;;16.92;5.65;;;33.70;92.40;;;;;;4896177;29;20639;-83
2022/06/19 07:36:35;;;;;;;10.55;5.53;;;34.00;92.30;;;;;;4901526;29;20220;-82
2022/06/19 07:39:12;;;;;;;12.02;5.60;;;34.30;91.80;;;;;;4901443;29;20298;-82
2022/06/19 07:41:39;;;;;;;14.02;5.78;;;34.30;90.80;;;;;;4912191;29;20227;-82
2022/06/19 07:44:15;;;;;;;11.73;5.32;;;34.60;91.80;;;;;;4914861;29;20299;-83
2022/06/19 07:53:08;;;;;;;12.77;5.43;;;35.10;92.00;;;;;;4907849;29;20511;-81
2022/06/19 07:55:48;;;;;;;10.05;5.85;;;35.20;91.00;;;;;;4895602;29;20299;-79
2022/06/19 07:58:18;;;;;;;9.25;6.15;;;35.10;91.10;;;;;;4915843;29;20215;-81
2022/06/19 08:03:38;;;;;;;11.57;6.40;;;35.70;90.90;;;;;;4899779;29;20299;-82
2022/06/19 08:06:48;;;;;;;9.00;5.78;;;36.10;91.50;;;;;;4917365;29;20587;-81
2022/06/19 08:09:37;;;;;;;10.40;6.40;;;36.20;90.60;;;;;;4908684;29;20194;-82
2022/06/19 08:12:06;;;;;;;8.95;6.18;;;36.40;90.60;;;;;;4901680;29;20215;-83
2022/06/19 08:14:33;;;;;;;10.10;5.70;;;36.40;90.80;;;;;;4904557;29;20223;-82
2022/06/19 08:17:01;;;;;;;8.52;6.07;;;36.40;90.40;;;;;;4894896;29;20231;-82
2022/06/19 08:19:28;;;;;;;12.93;6.05;;;36.30;91.30;;;;;;4917088;29;20204;-83
2022/06/19 08:21:55;;;;;;;10.95;6.63;;;36.50;91.10;;;;;;4895060;29;20212;-83
2022/06/19 08:24:22;;;;;;;13.10;6.80;;;36.50;90.50;;;;;;4898413;29;20269;-83
2022/06/19 08:26:49;;;;;;;8.95;6.00;;;36.50;91.20;;;;;;4910227;29;20205;-83
2022/06/19 08:29:18;;;;;;;9.10;6.03;;;36.70;91.10;;;;;;4888453;29;20673;-83
2022/06/19 08:31:45;;;;;;;11.80;6.28;;;36.70;90.60;;;;;;4889925;29;20215;-83
2022/06/19 08:34:12;;;;;;;10.80;6.85;;;36.80;91.10;;;;;;4918755;29;20218;-83
2022/06/19 08:36:39;;;;;;;10.98;6.50;;;36.90;89.90;;;;;;4896088;29;20211;-84
2022/06/19 08:39:13;;;;;;;14.27;6.68;;;36.80;90.00;;;;;;4914353;29;20224;-82
2022/06/19 08:42:01;;;;;;;11.90;6.82;;;36.90;88.30;;;;;;4917219;29;20196;-82
2022/06/19 08:44:57;;;;;;;14.15;6.85;;;37.00;87.30;;;;;;4906258;29;20229;-82
2022/06/19 08:47:49;;;;;;;12.27;7.95;;;37.10;87.20;;;;;;4890062;29;20208;-82
2022/06/19 08:50:27;;;;;;;11.05;7.40;;;37.00;86.80;;;;;;4914681;29;20681;-83
2022/06/19 08:53:20;;;;;;;8.07;7.07;;;37.20;86.40;;;;;;4896270;29;20214;-85
2022/06/19 08:55:57;;;;;;;14.30;7.63;;;37.50;87.40;;;;;;4910095;29;20715;-82
2022/06/19 08:58:32;;;;;;;9.95;7.18;;;37.50;84.00;;;;;;4913529;29;20250;-83
2022/06/19 09:01:05;;;;;;;10.93;7.20;;;37.50;83.40;;;;;;4915553;29;20565;-82
2022/06/19 09:06:35;;;;;;;14.07;7.80;;;37.70;83.60;;;;;;4912026;29;20195;-82
2022/06/19 09:09:25;;;;;;;12.93;7.70;;;37.90;83.60;;;;;;4895842;29;20681;-82
2022/06/19 09:12:07;;;;;;;13.90;7.80;;;38.00;83.30;;;;;;4913015;29;20286;-83
2022/06/19 09:14:38;;;;;;;12.80;7.90;;;38.10;84.20;;;;;;4911294;29;20241;-83
2022/06/19 09:17:19;;;;;;;14.00;8.27;;;38.30;82.10;;;;;;4891284;29;20674;-82
2022/06/19 09:19:52;;;;;;;9.40;7.90;;;38.10;80.90;;;;;;4888156;29;20239;-82
2022/06/19 09:22:37;;;;;;;14.27;7.65;;;38.20;81.50;;;;;;4912490;29;20201;-82
2022/06/19 09:25:16;;;;;;;12.07;8.02;;;38.10;81.50;;;;;;4912574;29;20387;-82
2022/06/19 09:27:51;;;;;;;13.65;8.73;;;38.40;83.20;;;;;;4897896;29;20215;-83
2022/06/19 09:30:24;;;;;;;11.27;8.23;;;38.50;82.10;;;;;;4916207;29;20684;-82
2022/06/19 09:32:58;;;;;;;13.25;8.90;;;38.50;80.40;;;;;;4897375;29;20210;-83
2022/06/19 09:35:31;;;;;;;14.82;8.65;;;38.50;79.40;;;;;;4912854;29;20367;-83
2022/06/19 09:38:01;;;;;;;11.73;8.20;;;38.50;79.60;;;;;;4916260;29;20211;-82
2022/06/19 09:40:32;;;;;;;13.00;9.02;;;38.60;79.90;;;;;;4913907;29;20203;-82
2022/06/19 09:43:05;;;;;;;10.82;8.90;;;38.50;79.20;;;;;;4892526;29;20267;-81
2022/06/19 09:45:37;;;;;;;10.93;8.32;;;38.50;79.10;;;;;;4897227;29;20621;-83
2022/06/19 09:48:11;;;;;;;12.30;8.30;;;38.60;78.10;;;;;;4913640;29;20211;-82
2022/06/19 09:50:42;;;;;;;11.75;8.20;;;38.80;79.70;;;;;;4904968;29;20516;-82
2022/06/19 09:53:13;;;;;;;9.85;8.30;;;38.90;78.30;;;;;;4913767;29;20740;-81
2022/06/19 09:55:43;;;;;;;9.75;7.95;;;39.10;78.00;;;;;;4910567;29;20298;-82
2022/06/19 09:58:15;;;;;;;12.95;8.32;;;39.20;77.60;;;;;;4915466;29;20214;-82
2022/06/19 10:00:45;;;;;;;10.60;8.98;;;39.10;77.40;;;;;;4896754;29;20223;-83
2022/06/19 10:03:20;;;;;;;15.52;8.98;;;39.10;76.60;;;;;;4897667;29;20596;-82
2022/06/19 10:05:51;;;;;;;14.38;8.65;;;39.20;75.40;;;;;;4895687;29;20291;-83
2022/06/19 10:08:22;;;;;;;10.60;8.48;;;39.20;75.70;;;;;;4910703;29;20200;-83
2022/06/19 10:10:53;;;;;;;12.23;8.60;;;39.20;77.90;;;;;;4915141;29;20211;-82
2022/06/19 10:13:29;;;;;;;9.50;8.60;;;39.10;75.20;;;;;;4887308;29;20265;-82
2022/06/19 10:15:59;;;;;;;13.73;8.95;;;39.00;76.30;;;;;;4896789;29;20215;-82
2022/06/19 10:18:32;;;;;;;12.18;9.18;;;39.10;75.30;;;;;;4902829;29;20263;-83
2022/06/19 10:21:05;;;;;;;11.85;8.98;;;38.80;74.70;;;;;;4915536;29;20681;-83
2022/06/19 10:23:48;;;;;;;11.60;9.30;;;38.50;75.90;;;;;;4898333;29;20214;-83
2022/06/19 10:26:35;;;;;;;11.38;9.15;;;38.50;77.20;;;;;;4903528;29;20580;-83
2022/06/19 10:29:30;;;;;;;12.88;8.70;;;38.40;76.80;;;;;;4898182;29;20212;-83
2022/06/19 10:32:11;;;;;;;13.15;9.07;;;38.40;76.70;;;;;;4911979;29;20192;-83
2022/06/19 10:34:51;;;;;;;9.90;8.13;;;38.40;76.40;;;;;;4897168;29;20758;-82
2022/06/19 10:37:31;;;;;;;11.57;8.30;;;38.40;77.40;;;;;;4896793;29;20348;-81
2022/06/19 10:40:10;;;;;;;11.48;8.85;;;38.20;75.40;;;;;;4898136;29;20235;-82
2022/06/19 10:42:51;;;;;;;11.02;8.73;;;38.10;77.10;;;;;;4898547;29;20212;-82
2022/06/19 10:45:32;;;;;;;9.98;8.77;;;37.90;76.50;;;;;;4896053;29;20334;-82
2022/06/19 10:48:19;;;;;;;10.68;9.13;;;37.90;76.90;;;;;;4898037;29;20208;-83
2022/06/19 10:50:53;;;;;;;10.98;8.90;;;37.90;74.70;;;;;;4915131;29;20616;-84
2022/06/19 10:53:35;;;;;;;10.27;9.32;;;37.90;75.10;;;;;;4897887;29;20220;-85
2022/06/19 10:56:11;;;;;;;12.98;9.80;;;37.80;74.60;;;;;;4894408;29;20227;-88
2022/06/19 10:58:38;;;;;;;10.05;9.02;;;37.80;74.00;;;;;;4897993;29;20219;-83
2022/06/19 11:01:08;;;;;;;11.90;9.43;;;37.60;74.60;;;;;;4901411;29;20255;-84
2022/06/19 11:06:31;;;;;;;16.60;9.40;;;37.30;73.20;;;;;;4918084;29;20248;-83
2022/06/19 11:09:03;;;;;;;18.13;9.85;;;37.10;73.20;;;;;;4918718;29;20211;-83
2022/06/19 11:11:33;;;;;;;15.32;9.43;;;37.00;73.50;;;;;;4898548;29;20212;-82
2022/06/19 11:14:06;;;;;;;16.05;9.75;;;36.80;70.90;;;;;;4899782;29;20208;-82
2022/06/19 11:16:36;;;;;;;12.40;8.70;;;36.80;72.10;;;;;;4899350;29;20208;-83
2022/06/19 11:19:03;;;;;;;10.35;8.35;;;36.70;71.70;;;;;;4897643;29;20206;-82
2022/06/19 11:21:35;;;;;;;11.40;9.25;;;36.70;72.30;;;;;;4913148;29;20602;-83
2022/06/19 11:24:04;;;;;;;13.32;8.50;;;36.70;72.10;;;;;;4898748;29;20292;-83
2022/06/19 11:26:37;;;;;;;11.00;7.72;;;36.50;70.80;;;;;;4896610;29;20274;-84
2022/06/19 11:29:16;;;;;;;12.00;8.55;;;36.30;70.30;;;;;;4910279;29;20211;-84
2022/06/19 11:32:05;;;;;;;13.02;8.63;;;36.20;70.20;;;;;;4913823;29;20211;-83
2022/06/19 11:34:47;;;;;;;12.30;8.10;;;36.30;70.50;;;;;;4908185;29;20223;-82
2022/06/19 11:37:21;;;;;;;9.75;7.78;;;36.20;70.30;;;;;;4898704;29;20207;-82
2022/06/19 11:39:55;;;;;;;13.63;7.88;;;36.30;70.00;;;;;;4899229;29;20286;-83
2022/06/19 11:42:28;;;;;;;14.80;8.38;;;36.20;69.90;;;;;;4912170;29;20207;-82
2022/06/19 11:45:01;;;;;;;14.70;8.68;;;36.20;70.90;;;;;;4892880;29;20223;-82
2022/06/19 11:47:35;;;;;;;14.15;8.88;;;36.20;70.90;;;;;;4901334;29;20207;-83
2022/06/19 11:50:24;;;;;;;14.13;8.30;;;36.10;69.70;;;;;;4890750;29;20195;-82
2022/06/19 11:52:56;;;;;;;10.38;7.68;;;36.00;69.70;;;;;;4891396;29;20205;-84
2022/06/19 11:55:27;;;;;;;13.93;7.90;;;35.80;70.00;;;;;;4912050;29;20223;-84
2022/06/19 11:57:57;;;;;;;9.38;7.22;;;35.80;70.10;;;;;;4915487;29;20717;-84
2022/06/19 12:00:30;;;;;;;11.95;7.47;;;35.90;69.80;;;;;;4899049;29;20275;-83
2022/06/19 12:02:59;;;;;;;10.43;7.00;;;35.90;67.30;;;;;;4889500;29;20197;-83
2022/06/19 12:05:30;;;;;;;10.48;7.78;;;36.00;69.20;;;;;;4916399;29;20701;-82
2022/06/19 12:08:05;;;;;;;9.50;6.70;;;35.90;70.10;;;;;;4916457;29;20222;-82
2022/06/19 12:10:37;;;;;;;11.55;6.97;;;35.90;66.00;;;;;;4897632;29;20255;-84
2022/06/19 12:13:08;;;;;;;9.20;6.78;;;35.80;66.20;;;;;;4900363;29;20212;-82
2022/06/19 12:15:35;;;;;;;10.63;6.90;;;35.60;67.10;;;;;;4917771;29;20272;-78
2022/06/19 12:18:12;;;;;;;11.20;6.90;;;35.60;67.10;;;;;;4884485;29;20200;-83
2022/06/19 12:20:39;;;;;;;8.95;6.72;;;35.60;67.60;;;;;;4889284;29;20198;-83
2022/06/19 12:23:13;;;;;;;9.10;6.80;;;35.70;67.60;;;;;;4898502;29;20240;-84
2022/06/19 12:25:46;;;;;;;10.07;6.40;;;35.80;69.00;;;;;;4908730;29;20239;-83
2022/06/19 12:28:21;;;;;;;14.25;6.90;;;35.80;67.90;;;;;;4909353;29;20200;-82
2022/06/19 12:30:52;;;;;;;9.20;6.57;;;35.70;66.40;;;;;;4893979;29;20226;-80
2022/06/19 12:33:26;;;;;;;9.63;6.15;;;35.70;67.10;;;;;;4902241;29;20200;-81
2022/06/19 12:35:53;;;;;;;9.90;6.60;;;35.70;68.70;;;;;;4913315;29;20242;-81
2022/06/19 12:38:23;;;;;;;18.67;7.35;;;35.60;67.80;;;;;;4916356;29;20250;-81
2022/06/19 12:41:08;;;;;;;13.05;7.10;;;35.60;67.20;;;;;;4892220;29;20196;-81
2022/06/19 12:43:59;;;;;;;9.77;7.15;;;35.50;67.60;;;;;;4914573;29;20693;-81
2022/06/19 12:46:37;;;;;;;8.60;6.55;;;35.50;67.40;;;;;;4902535;29;20232;-81
2022/06/19 12:49:26;;;;;;;16.98;7.15;;;35.50;68.70;;;;;;4910480;29;20677;-81
2022/06/19 12:51:56;;;;;;;10.27;7.03;;;35.40;66.40;;;;;;4899780;29;20204;-81
2022/06/19 12:54:52;;;;;;;10.10;6.78;;;35.40;66.40;;;;;;4915624;29;20223;-81
2022/06/19 12:57:34;;;;;;;10.73;7.03;;;35.30;67.50;;;;;;4898412;29;20213;-80
2022/06/19 13:00:19;;;;;;;14.57;7.25;;;35.30;67.60;;;;;;4895584;29;20224;-81
2022/06/19 13:03:30;;;;;;;16.35;8.10;;;35.20;68.00;;;;;;4899707;29;20211;-81
2022/06/19 13:06:14;;;;;;;10.55;7.25;;;35.20;67.40;;;;;;4896812;29;20236;-81
2022/06/19 13:08:51;;;;;;;13.60;6.70;;;35.10;68.50;;;;;;4903331;29;20658;-81
2022/06/19 13:11:36;;;;;;;11.73;7.15;;;35.20;67.70;;;;;;4916505;29;20192;-82
2022/06/19 13:14:26;;;;;;;8.05;7.22;;;35.20;67.30;;;;;;4916574;29;20571;-81
2022/06/19 13:17:03;;;;;;;14.32;8.13;;;35.30;68.60;;;;;;4913220;29;20565;-81
2022/06/19 13:19:44;;;;;;;11.48;8.10;;;35.30;67.10;;;;;;4898873;29;20208;-81
2022/06/19 13:22:20;;;;;;;16.38;7.63;;;35.20;66.60;;;;;;4912382;29;20196;-79
2022/06/19 13:24:54;;;;;;;11.95;7.45;;;35.10;67.90;;;;;;4883936;29;20219;-82
2022/06/19 13:27:36;;;;;;;12.57;7.10;;;35.10;67.70;;;;;;4915971;29;20207;-82
2022/06/19 13:30:16;;;;;;;10.77;6.85;;;35.10;67.80;;;;;;4890783;29;20212;-81